createdAt,value
2024-01-21T00:01:17.689Z,101362.31
2024-01-21T00:03:46.230Z,101355.53
2024-01-21T00:06:14.336Z,101354.12
2024-01-21T00:08:42.298Z,101363.16
2024-01-21T00:11:10.814Z,101367.62
2024-01-21T00:13:38.939Z,101363.75
2024-01-21T00:16:07.337Z,101368.25
2024-01-21T00:18:35.689Z,101352.94
2024-01-21T00:21:03.739Z,101347.94
2024-01-21T00:23:31.740Z,101340.78
2024-01-21T00:26:00.105Z,101347.16
2024-01-21T00:28:28.791Z,101349.03
2024-01-21T00:30:56.806Z,101349.34
2024-01-21T00:33:25.185Z,101356.88
2024-01-21T00:35:53.240Z,101362.00
2024-01-21T00:38:21.349Z,101362.66
2024-01-21T00:40:49.718Z,101358.25
2024-01-21T00:43:17.708Z,101355.75
2024-01-21T00:45:45.723Z,101367.62
2024-01-21T00:48:14.194Z,101372.22
2024-01-21T00:50:42.213Z,101377.91
2024-01-21T00:53:10.648Z,101370.06
2024-01-21T00:55:38.870Z,101361.84
2024-01-21T00:58:06.785Z,101360.78
2024-01-21T01:00:34.766Z,101356.78
2024-01-21T01:03:03.343Z,101357.12
2024-01-21T01:05:31.779Z,101355.25
2024-01-21T01:07:59.790Z,101346.28
2024-01-21T01:10:28.049Z,101358.25
2024-01-21T01:12:57.140Z,101350.72
2024-01-21T01:15:25.144Z,101359.06
2024-01-21T01:17:53.606Z,101355.94
2024-01-21T01:20:22.293Z,101350.97
2024-01-21T01:22:50.390Z,101349.81
2024-01-21T01:25:18.649Z,101363.25
2024-01-21T01:27:46.776Z,101365.19
2024-01-21T01:30:15.551Z,101359.50
2024-01-21T01:32:43.823Z,101351.19
2024-01-21T01:35:11.994Z,101361.44
2024-01-21T01:37:39.882Z,101356.94
2024-01-21T01:40:08.562Z,101361.56
2024-01-21T01:42:37.093Z,101353.81
2024-01-21T01:45:05.631Z,101358.75
2024-01-21T01:47:34.565Z,101353.84
2024-01-21T01:50:02.826Z,101356.34
2024-01-21T01:52:30.802Z,101365.50
2024-01-21T01:54:58.991Z,101359.53
2024-01-21T01:57:27.704Z,101371.91
2024-01-21T01:59:56.099Z,101373.75
2024-01-21T02:02:24.778Z,101376.06
2024-01-21T02:04:53.255Z,101382.25
2024-01-21T02:07:21.416Z,101375.22
2024-01-21T02:09:49.539Z,101387.34
2024-01-21T02:12:19.559Z,101372.00
2024-01-21T02:14:47.600Z,101375.94
2024-01-21T02:17:15.527Z,101384.56
2024-01-21T02:19:43.834Z,101386.25
2024-01-21T02:22:11.873Z,101380.34
2024-01-21T02:24:40.077Z,101381.72
2024-01-21T02:27:08.346Z,101390.44
2024-01-21T02:29:36.386Z,101383.88
2024-01-21T02:32:05.364Z,101397.44
2024-01-21T02:34:33.723Z,101402.78
2024-01-21T02:37:01.729Z,101399.22
2024-01-21T02:39:29.675Z,101400.00
2024-01-21T02:41:57.847Z,101385.53
2024-01-21T02:44:25.742Z,101390.91
2024-01-21T02:46:53.649Z,101393.22
2024-01-21T02:49:25.171Z,101402.50
2024-01-21T02:51:53.315Z,101397.91
2024-01-21T02:54:21.508Z,101395.50
2024-01-21T02:56:49.597Z,101389.63
2024-01-21T02:59:17.893Z,101385.69
2024-01-21T03:01:46.444Z,101382.94
2024-01-21T03:04:14.950Z,101382.34
2024-01-21T03:06:43.772Z,101385.97
2024-01-21T03:09:12.103Z,101399.53
2024-01-21T03:11:40.023Z,101409.78
2024-01-21T03:14:08.750Z,101402.19
2024-01-21T03:16:37.244Z,101412.44
2024-01-21T03:19:05.175Z,101414.16
2024-01-21T03:21:33.213Z,101423.84
2024-01-21T03:24:01.492Z,101407.84
2024-01-21T03:26:29.537Z,101422.12
2024-01-21T03:28:58.253Z,101425.66
2024-01-21T03:31:26.670Z,101420.59
2024-01-21T03:33:55.509Z,101437.59
2024-01-21T03:36:23.627Z,101430.50
2024-01-21T03:38:51.977Z,101436.69
2024-01-21T03:41:20.894Z,101446.25
2024-01-21T03:43:49.048Z,101440.97
2024-01-21T03:46:18.242Z,101453.03
2024-01-21T03:48:46.646Z,101447.19
2024-01-21T03:51:15.275Z,101461.81
2024-01-21T03:53:43.613Z,101459.50
2024-01-21T03:56:19.424Z,101458.03
2024-01-21T03:58:48.307Z,101466.56
2024-01-21T04:01:16.450Z,101459.84
2024-01-21T04:03:45.058Z,101457.66
2024-01-21T04:06:13.161Z,101458.19
2024-01-21T04:08:41.286Z,101461.50
2024-01-21T04:11:09.612Z,101461.69
2024-01-21T04:13:37.553Z,101449.84
2024-01-21T04:16:05.789Z,101453.47
2024-01-21T04:18:34.262Z,101454.97
2024-01-21T04:21:03.049Z,101448.91
2024-01-21T04:23:31.051Z,101461.59
2024-01-21T04:26:00.781Z,101457.47
2024-01-21T04:28:29.133Z,101457.53
2024-01-21T04:30:57.860Z,101460.91
2024-01-21T04:33:26.378Z,101456.75
2024-01-21T04:35:54.967Z,101466.19
2024-01-21T04:38:24.951Z,101461.13
2024-01-21T04:40:56.062Z,101462.00
2024-01-21T04:43:24.055Z,101453.41
2024-01-21T04:45:52.161Z,101470.44
2024-01-21T04:48:20.559Z,101467.09
2024-01-21T04:50:48.642Z,101459.34
2024-01-21T04:53:16.658Z,101465.41
2024-01-21T04:55:44.903Z,101457.75
2024-01-21T04:58:14.159Z,101457.81
2024-01-21T05:00:42.187Z,101464.59
2024-01-21T05:03:10.531Z,101461.13
2024-01-21T05:05:38.528Z,101463.84
2024-01-21T05:08:06.981Z,101469.69
2024-01-21T05:10:36.177Z,101479.97
2024-01-21T05:13:04.673Z,101474.03
2024-01-21T05:15:32.911Z,101480.97
2024-01-21T05:18:01.521Z,101492.06
2024-01-21T05:20:29.767Z,101489.59
2024-01-21T05:22:57.856Z,101489.59
2024-01-21T05:25:26.640Z,101476.78
2024-01-21T05:27:54.624Z,101474.06
2024-01-21T05:30:23.152Z,101484.50
2024-01-21T05:32:52.384Z,101492.84
2024-01-21T05:35:20.802Z,101498.88
2024-01-21T05:37:50.228Z,101498.94
2024-01-21T05:40:18.566Z,101497.09
2024-01-21T05:42:46.821Z,101498.94
2024-01-21T05:45:14.845Z,101520.09
2024-01-21T05:47:43.389Z,101515.88
2024-01-21T05:50:11.415Z,101506.53
2024-01-21T05:52:39.367Z,101519.91
2024-01-21T05:55:08.111Z,101520.75
2024-01-21T05:57:36.209Z,101517.38
2024-01-21T06:00:04.363Z,101526.09
2024-01-21T06:02:40.426Z,101535.28
2024-01-21T06:05:08.677Z,101533.53
2024-01-21T06:07:36.603Z,101535.16
2024-01-21T06:10:05.168Z,101540.25
2024-01-21T06:12:33.781Z,101545.47
2024-01-21T06:15:02.294Z,101546.53
2024-01-21T06:17:30.328Z,101551.63
2024-01-21T06:19:58.567Z,101560.09
2024-01-21T06:22:26.492Z,101560.16
2024-01-21T06:24:54.444Z,101277.75
2024-01-21T06:27:22.843Z,101555.06
2024-01-21T06:29:50.910Z,101559.25
2024-01-21T06:32:18.929Z,101555.87
2024-01-21T06:34:47.398Z,101562.66
2024-01-21T06:37:15.763Z,101569.47
2024-01-21T06:39:54.201Z,101568.69
2024-01-21T06:42:26.052Z,101561.97
2024-01-21T06:44:53.921Z,101564.44
2024-01-21T06:47:21.918Z,101570.34
2024-01-21T06:49:50.399Z,101573.72
2024-01-21T06:52:18.735Z,101576.97
2024-01-21T06:54:47.095Z,101573.34
2024-01-21T06:57:15.418Z,101586.72
2024-01-21T06:59:43.646Z,101583.91
2024-01-21T07:02:12.709Z,101571.16
2024-01-21T07:04:41.109Z,101576.88
2024-01-21T07:07:09.846Z,101578.59
2024-01-21T07:09:42.008Z,101569.94
2024-01-21T07:12:10.278Z,101572.28
2024-01-21T07:14:38.332Z,101585.94
2024-01-21T07:17:06.611Z,101586.91
2024-01-21T07:19:35.584Z,101589.41
2024-01-21T07:22:04.081Z,101590.09
2024-01-21T07:24:32.248Z,101595.03
2024-01-21T07:27:00.784Z,101600.13
2024-01-21T07:29:31.191Z,101597.56
2024-01-21T07:31:59.534Z,101609.34
2024-01-21T07:34:29.175Z,101611.19
2024-01-21T07:36:57.680Z,101614.00
2024-01-21T07:39:26.362Z,101624.03
2024-01-21T07:41:55.534Z,101617.09
2024-01-21T07:44:23.554Z,101620.41
2024-01-21T07:46:51.867Z,101625.44
2024-01-21T07:49:20.283Z,101619.38
2024-01-21T07:51:48.549Z,101619.47
2024-01-21T07:54:16.885Z,101617.63
2024-01-21T07:56:45.356Z,101631.06
2024-01-21T07:59:14.368Z,101637.00
2024-01-21T08:01:42.706Z,101627.63
2024-01-21T08:04:11.209Z,101632.09
2024-01-21T08:06:39.668Z,101640.63
2024-01-21T08:09:07.609Z,101639.53
2024-01-21T08:11:37.091Z,101638.84
2024-01-21T08:14:05.268Z,101627.34
2024-01-21T08:16:33.464Z,101648.59
2024-01-21T08:19:02.730Z,101644.19
2024-01-21T08:21:31.316Z,101648.13
2024-01-21T08:24:00.169Z,101644.50
2024-01-21T08:26:28.720Z,101645.19
2024-01-21T08:28:56.806Z,101647.81
2024-01-21T08:31:24.888Z,101664.09
2024-01-21T08:33:53.649Z,101663.53
2024-01-21T08:36:22.258Z,101675.09
2024-01-21T08:38:52.532Z,101677.84
2024-01-21T08:41:22.052Z,101678.81
2024-01-21T08:43:52.483Z,101682.97
2024-01-21T08:46:20.924Z,101694.53
2024-01-21T08:48:49.056Z,101694.78
2024-01-21T08:51:21.132Z,101698.44
2024-01-21T08:53:56.530Z,101692.62
2024-01-21T08:56:26.540Z,101704.94
2024-01-21T08:58:55.066Z,101698.56
2024-01-21T09:01:24.707Z,101703.38
2024-01-21T09:03:52.832Z,101713.81
2024-01-21T09:06:21.350Z,101723.12
2024-01-21T09:08:53.307Z,101724.47
2024-01-21T09:11:22.377Z,101717.94
2024-01-21T09:13:50.817Z,101717.66
2024-01-21T09:16:20.706Z,101709.62
2024-01-21T09:18:49.595Z,101718.16
2024-01-21T09:21:26.731Z,101716.34
2024-01-21T09:24:02.390Z,101718.97
2024-01-21T09:26:30.562Z,101712.69
2024-01-21T09:28:59.048Z,101720.84
2024-01-21T09:31:27.597Z,101723.75
2024-01-21T09:33:57.894Z,101712.88
2024-01-21T09:36:26.441Z,101704.81
2024-01-21T09:38:55.802Z,101721.09
2024-01-21T09:41:39.377Z,101725.06
2024-01-21T09:44:08.289Z,101726.41
2024-01-21T09:46:36.468Z,101722.38
2024-01-21T09:49:05.582Z,101732.25
2024-01-21T09:51:38.299Z,101719.53
2024-01-21T09:54:07.909Z,101730.31
2024-01-21T09:56:37.784Z,101724.41
2024-01-21T09:59:09.894Z,101727.25
2024-01-21T10:01:42.359Z,101729.72
2024-01-21T10:04:13.300Z,101724.38
2024-01-21T10:06:42.047Z,101729.56
2024-01-21T10:09:19.692Z,101722.38
2024-01-21T10:11:58.130Z,101713.56
2024-01-21T10:14:27.758Z,101715.47
2024-01-21T10:17:00.166Z,101724.16
2024-01-21T10:19:35.462Z,101720.28
2024-01-21T10:22:17.604Z,101722.00
2024-01-21T10:24:48.170Z,101721.00
2024-01-21T10:27:17.157Z,101730.56
2024-01-21T10:29:46.831Z,101733.59
2024-01-21T10:32:16.939Z,101732.41
2024-01-21T10:34:50.416Z,101732.50
2024-01-21T10:37:21.882Z,101725.88
2024-01-21T10:39:51.004Z,101722.31
2024-01-21T10:42:22.066Z,101716.75
2024-01-21T10:44:51.254Z,101719.81
2024-01-21T10:47:21.421Z,101722.69
2024-01-21T10:49:50.494Z,101727.84
2024-01-21T10:52:20.769Z,101717.66
2024-01-21T10:54:49.384Z,101722.19
2024-01-21T10:57:19.127Z,101718.00
2024-01-21T10:59:51.036Z,101716.00
2024-01-21T11:02:20.934Z,101719.34
2024-01-21T11:04:49.377Z,101717.47
2024-01-21T11:07:19.334Z,101719.00
2024-01-21T11:09:49.549Z,101711.53
2024-01-21T11:12:18.344Z,101710.25
2024-01-21T11:14:47.685Z,101700.94
2024-01-21T11:17:19.230Z,101703.91
2024-01-21T11:19:50.855Z,101698.37
2024-01-21T11:22:25.446Z,101702.34
2024-01-21T11:24:55.719Z,101690.50
2024-01-21T11:27:31.124Z,101693.53
2024-01-21T11:30:02.154Z,101694.59
2024-01-21T11:32:32.609Z,101688.38
2024-01-21T11:35:14.126Z,101690.56
2024-01-21T11:37:42.392Z,101687.87
2024-01-21T11:40:11.933Z,101690.03
2024-01-21T11:42:40.679Z,101701.37
2024-01-21T11:45:11.182Z,101698.09
2024-01-21T11:47:41.759Z,101695.41
2024-01-21T11:50:11.246Z,101685.69
2024-01-21T11:52:40.340Z,101693.28
2024-01-21T11:55:09.030Z,101694.16
2024-01-21T11:57:37.261Z,101693.53
2024-01-21T12:00:06.377Z,101692.09
2024-01-21T12:02:40.455Z,101689.84
2024-01-21T12:05:09.373Z,101691.37
2024-01-21T12:07:37.681Z,101697.53
2024-01-21T12:10:06.323Z,101693.94
2024-01-21T12:12:34.995Z,101692.16
2024-01-21T12:15:04.063Z,101677.94
2024-01-21T12:17:32.720Z,101683.81
2024-01-21T12:20:01.422Z,101682.22
2024-01-21T12:22:40.646Z,101679.12
2024-01-21T12:25:09.857Z,101673.53
2024-01-21T12:27:42.502Z,101672.53
2024-01-21T12:30:14.857Z,101674.03
2024-01-21T12:32:53.436Z,101668.78
2024-01-21T12:35:27.482Z,101685.47
2024-01-21T12:37:55.815Z,101688.91
2024-01-21T12:40:24.858Z,101678.47
2024-01-21T12:42:54.067Z,101683.22
2024-01-21T12:45:23.469Z,101680.97
2024-01-21T12:47:53.099Z,101675.59
2024-01-21T12:50:22.782Z,101676.28
2024-01-21T12:52:51.241Z,101678.03
2024-01-21T12:55:19.259Z,101681.47
2024-01-21T12:57:47.452Z,101683.38
2024-01-21T13:00:15.945Z,101684.09
2024-01-21T13:02:45.225Z,101683.28
2024-01-21T13:05:14.558Z,101684.34
2024-01-21T13:07:42.790Z,101692.19
2024-01-21T13:10:11.159Z,101680.75
2024-01-21T13:12:39.909Z,101680.81
2024-01-21T13:15:09.637Z,101684.41
2024-01-21T13:17:38.116Z,101691.84
2024-01-21T13:20:07.732Z,101689.38
2024-01-21T13:22:38.805Z,101687.25
2024-01-21T13:25:07.765Z,101678.59
2024-01-21T13:27:44.480Z,101678.97
2024-01-21T13:30:32.393Z,101671.06
2024-01-21T13:33:00.934Z,101679.75
2024-01-21T13:35:30.007Z,101676.75
2024-01-21T13:37:58.749Z,101673.72
2024-01-21T13:40:27.477Z,101679.19
2024-01-21T13:42:55.921Z,101680.66
2024-01-21T13:45:24.758Z,101685.75
2024-01-21T13:47:53.223Z,101674.59
2024-01-21T13:50:26.281Z,101664.94
2024-01-21T13:53:00.229Z,101671.97
2024-01-21T13:55:31.958Z,101666.69
2024-01-21T13:58:03.552Z,101668.53
2024-01-21T14:00:34.655Z,101667.75
2024-01-21T14:03:06.358Z,101655.03
2024-01-21T14:05:39.746Z,101657.53
2024-01-21T14:08:09.196Z,101662.78
2024-01-21T14:10:42.053Z,101662.94
2024-01-21T14:13:11.292Z,101664.66
2024-01-21T14:15:40.922Z,101658.69
2024-01-21T14:18:11.640Z,101668.19
2024-01-21T14:20:42.717Z,101682.91
2024-01-21T14:23:17.802Z,101676.91
2024-01-21T14:25:49.655Z,101679.88
2024-01-21T14:28:21.372Z,101673.09
2024-01-21T14:30:54.901Z,101689.44
2024-01-21T14:33:23.741Z,101677.53
2024-01-21T14:35:54.630Z,101684.47
2024-01-21T14:38:28.378Z,101684.53
2024-01-21T14:41:03.665Z,101683.78
2024-01-21T14:43:37.434Z,101689.03
2024-01-21T14:46:13.268Z,101689.84
2024-01-21T14:48:46.650Z,101678.03
2024-01-21T14:51:20.411Z,101690.13
2024-01-21T14:53:50.142Z,101684.31
2024-01-21T14:56:22.554Z,101696.53
2024-01-21T14:58:59.281Z,101711.16
2024-01-21T15:01:30.712Z,101714.63
2024-01-21T15:04:04.078Z,101703.59
2024-01-21T15:06:34.511Z,101721.81
2024-01-21T15:09:07.134Z,101713.50
2024-01-21T15:11:41.683Z,101723.00
2024-01-21T15:14:26.000Z,101730.00
2024-01-21T15:16:59.245Z,101720.03
2024-01-21T15:19:32.655Z,101717.63
2024-01-21T15:22:05.909Z,101728.00
2024-01-21T15:24:39.507Z,101723.09
2024-01-21T15:27:12.782Z,101722.44
2024-01-21T15:29:45.646Z,101724.25
2024-01-21T15:32:17.772Z,101732.06
2024-01-21T15:34:49.343Z,101728.69
2024-01-21T15:37:21.951Z,101733.03
2024-01-21T15:39:54.425Z,101727.25
2024-01-21T15:42:28.321Z,101735.91
2024-01-21T15:44:58.714Z,101736.84
2024-01-21T15:47:33.694Z,101727.44
2024-01-21T15:50:06.688Z,101724.13
2024-01-21T15:52:40.741Z,101730.25
2024-01-21T15:55:14.610Z,101732.72
2024-01-21T15:57:47.770Z,101744.75
2024-01-21T16:00:20.890Z,101755.84
2024-01-21T16:02:53.616Z,101757.69
2024-01-21T16:05:23.020Z,101750.12
2024-01-21T16:07:53.650Z,101761.25
2024-01-21T16:10:22.436Z,101765.69
2024-01-21T16:12:54.241Z,101760.53
2024-01-21T16:15:22.903Z,101769.13
2024-01-21T16:17:52.100Z,101764.16
2024-01-21T16:20:24.871Z,101758.16
2024-01-21T16:22:55.149Z,101765.91
2024-01-21T16:25:26.382Z,101759.00
2024-01-21T16:27:55.401Z,101767.62
2024-01-21T16:30:26.125Z,101759.16
2024-01-21T16:32:54.705Z,101772.13
2024-01-21T16:35:24.242Z,101767.84
2024-01-21T16:37:52.673Z,101777.16
2024-01-21T16:40:21.721Z,101781.50
2024-01-21T16:42:50.086Z,101782.34
2024-01-21T16:45:21.606Z,101780.00
2024-01-21T16:47:51.052Z,101792.87
2024-01-21T16:50:19.958Z,101785.25
2024-01-21T16:52:56.538Z,101789.59
2024-01-21T16:55:25.133Z,101794.91
2024-01-21T16:57:53.257Z,101782.06
2024-01-21T17:00:24.397Z,101797.41
2024-01-21T17:02:55.805Z,101791.53
2024-01-21T17:05:24.753Z,101790.91
2024-01-21T17:07:53.569Z,101798.66
2024-01-21T17:10:55.205Z,101798.75
2024-01-21T17:13:24.052Z,101803.84
2024-01-21T17:15:52.222Z,101808.88
2024-01-21T17:18:23.292Z,101814.97
2024-01-21T17:20:53.553Z,101818.34
2024-01-21T17:23:21.927Z,101820.00
2024-01-21T17:25:50.573Z,101822.72
2024-01-21T17:28:19.182Z,101816.78
2024-01-21T17:30:48.378Z,101821.09
2024-01-21T17:33:17.629Z,101815.06
2024-01-21T17:35:46.676Z,101825.44
2024-01-21T17:38:14.992Z,101840.63
2024-01-21T17:40:42.973Z,101835.50
2024-01-21T17:43:11.369Z,101833.97
2024-01-21T17:45:39.720Z,101830.56
2024-01-21T17:48:08.670Z,101820.41
2024-01-21T17:50:37.139Z,101829.78
2024-01-21T17:53:05.722Z,101839.16
2024-01-21T17:55:33.732Z,101833.22
2024-01-21T17:58:02.511Z,101839.28
2024-01-21T18:00:30.771Z,101833.41
2024-01-21T18:02:59.355Z,101841.06
2024-01-21T18:05:28.225Z,101835.88
2024-01-21T18:08:00.613Z,101826.59
2024-01-21T18:10:29.394Z,101829.87
2024-01-21T18:12:57.682Z,101831.66
2024-01-21T18:15:25.967Z,101824.09
2024-01-21T18:17:54.300Z,101824.97
2024-01-21T18:20:22.812Z,101821.56
2024-01-21T18:22:52.135Z,101827.66
2024-01-21T18:25:20.439Z,101831.81
2024-01-21T18:27:48.880Z,101835.31
2024-01-21T18:30:16.938Z,101826.84
2024-01-21T18:32:46.768Z,101847.31
2024-01-21T18:35:16.282Z,101851.53
2024-01-21T18:37:44.527Z,101841.34
2024-01-21T18:40:13.476Z,101842.16
2024-01-21T18:42:41.522Z,101849.00
2024-01-21T18:45:10.408Z,101851.63
2024-01-21T18:47:39.627Z,101838.03
2024-01-21T18:50:08.412Z,101844.00
2024-01-21T18:52:36.511Z,101852.66
2024-01-21T18:55:05.106Z,101849.25
2024-01-21T18:57:33.141Z,101850.09
2024-01-21T19:00:01.553Z,101843.41
2024-01-21T19:02:30.288Z,101825.63
2024-01-21T19:04:58.560Z,101829.84
2024-01-21T19:07:32.665Z,101824.72
2024-01-21T19:10:02.302Z,101825.63
2024-01-21T19:12:33.883Z,101831.62
2024-01-21T19:15:02.907Z,101833.25
2024-01-21T19:17:31.304Z,101837.53
2024-01-21T19:20:01.112Z,101838.34
2024-01-21T19:22:30.738Z,101837.50
2024-01-21T19:24:58.851Z,101828.19
2024-01-21T19:27:27.859Z,101820.69
2024-01-21T19:29:57.273Z,101812.16
2024-01-21T19:32:25.596Z,101817.28
2024-01-21T19:34:54.815Z,101810.56
2024-01-21T19:37:23.216Z,101803.16
2024-01-21T19:39:51.532Z,101809.84
2024-01-21T19:42:19.704Z,101809.00
2024-01-21T19:44:50.825Z,101814.03
2024-01-21T19:47:19.448Z,101806.28
2024-01-21T19:49:47.989Z,101810.47
2024-01-21T19:52:17.651Z,101809.63
2024-01-21T19:54:45.577Z,101822.31
2024-01-21T19:57:14.825Z,101831.62
2024-01-21T19:59:42.821Z,101821.38
2024-01-21T20:02:12.937Z,101816.31
2024-01-21T20:04:41.367Z,101815.53
2024-01-21T20:07:09.708Z,101818.06
2024-01-21T20:09:37.762Z,101801.03
2024-01-21T20:12:06.420Z,101810.38
2024-01-21T20:14:34.448Z,101817.19
2024-01-21T20:17:02.789Z,101816.28
2024-01-21T20:19:31.182Z,101819.63
2024-01-21T20:21:59.231Z,101803.69
2024-01-21T20:24:27.493Z,101799.63
2024-01-21T20:26:55.994Z,101806.31
2024-01-21T20:29:24.648Z,101811.31
2024-01-21T20:31:52.767Z,101801.06
2024-01-21T20:34:21.337Z,101803.59
2024-01-21T20:36:49.490Z,101812.94
2024-01-21T20:39:17.788Z,101807.78
2024-01-21T20:41:46.380Z,101813.75
2024-01-21T20:44:14.751Z,101821.59
2024-01-21T20:46:42.772Z,101809.69
2024-01-21T20:49:11.386Z,101824.16
2024-01-21T20:51:39.601Z,101811.44
2024-01-21T20:54:08.944Z,101814.06
2024-01-21T20:56:37.604Z,101822.50
2024-01-21T20:59:05.629Z,101815.72
2024-01-21T21:01:35.491Z,101809.91
2024-01-21T21:04:04.193Z,101801.44
2024-01-21T21:06:32.649Z,101790.38
2024-01-21T21:09:01.024Z,101782.66
2024-01-21T21:11:29.574Z,101791.12
2024-01-21T21:13:58.040Z,101791.06
2024-01-21T21:16:26.875Z,101787.72
2024-01-21T21:18:56.233Z,101800.41
2024-01-21T21:21:24.382Z,101808.09
2024-01-21T21:23:52.421Z,101796.97
2024-01-21T21:26:20.698Z,101794.44
2024-01-21T21:28:48.681Z,101808.84
2024-01-21T21:31:16.953Z,101808.84
2024-01-21T21:33:45.865Z,101803.69
2024-01-21T21:36:15.848Z,101810.53
2024-01-21T21:38:47.002Z,101805.41
2024-01-21T21:41:15.352Z,101811.28
2024-01-21T21:43:43.446Z,101818.22
2024-01-21T21:46:11.693Z,101816.44
2024-01-21T21:48:40.490Z,101812.22
2024-01-21T21:51:08.880Z,101818.25
2024-01-21T21:53:36.913Z,101800.41
2024-01-21T21:56:06.111Z,101808.94
2024-01-21T21:58:34.135Z,101803.00
2024-01-21T22:01:02.414Z,101790.25
2024-01-21T22:03:33.173Z,101779.25
2024-01-21T22:06:03.998Z,101786.22
2024-01-21T22:08:34.098Z,101773.50
2024-01-21T22:11:03.571Z,101773.50
2024-01-21T22:13:32.867Z,101780.28
2024-01-21T22:16:00.890Z,101789.56
2024-01-21T22:18:29.277Z,101781.09
2024-01-21T22:20:57.754Z,101779.41
2024-01-21T22:23:26.228Z,101772.69
2024-01-21T22:25:55.397Z,101775.19
2024-01-21T22:28:23.602Z,101774.34
2024-01-21T22:30:53.760Z,101770.94
2024-01-21T22:33:21.843Z,101761.59
2024-01-21T22:35:50.239Z,101746.31
2024-01-21T22:38:18.274Z,101762.47
2024-01-21T22:40:46.196Z,101773.50
2024-01-21T22:43:14.691Z,101780.28
2024-01-21T22:45:43.023Z,101782.91
2024-01-21T22:48:11.340Z,101786.25
2024-01-21T22:50:40.633Z,101782.97
2024-01-21T22:53:09.227Z,101778.63
2024-01-21T22:55:37.209Z,101787.97
2024-01-21T22:58:05.904Z,101793.03
2024-01-21T23:00:34.350Z,101795.53
2024-01-21T23:03:02.603Z,101801.47
2024-01-21T23:05:30.702Z,101796.44
2024-01-21T23:07:58.978Z,101797.47
2024-01-21T23:10:27.225Z,101790.78
2024-01-21T23:12:55.219Z,101799.19
2024-01-21T23:15:23.612Z,101805.09
2024-01-21T23:17:51.688Z,101800.00
2024-01-21T23:20:19.914Z,101785.56
2024-01-21T23:22:48.254Z,101794.91
2024-01-21T23:25:16.327Z,101805.91
2024-01-21T23:27:44.241Z,101801.72
2024-01-21T23:30:12.654Z,101810.25
2024-01-21T23:32:41.029Z,101812.78
2024-01-21T23:35:09.127Z,101811.12
2024-01-21T23:37:37.424Z,101820.47
2024-01-21T23:40:06.104Z,101809.41
2024-01-21T23:42:34.195Z,101797.53
2024-01-21T23:45:02.818Z,101798.38
2024-01-21T23:47:30.922Z,101801.78
2024-01-21T23:49:58.917Z,101806.03
2024-01-21T23:52:27.096Z,101792.47
2024-01-21T23:54:55.798Z,101789.13
2024-01-21T23:57:23.680Z,101789.19
2024-01-21T23:59:52.573Z,101767.97
